หน้าหลัก
METAR-TAF:

METAR-TAF

ท่าอากาศยาน :

Molde, นอร์เวย์

ละติจูด: 62-45N, ลองจิจูด: 007-16E, ความสูง: 0 ม.

การสังเกตสภาพอากาศปัจจุบัน

รายงานได้ทำขึ้นเมื่อ 40 นาทีที่แล้ว ณ เวลา 23:20 UTC
ลม 8 นอตจากเหนือ
อุณหภูมิ 13°C
ความชื้น 94%
ความกดอากาศ 1016 hPa
ทัศนวิสัย 10 กม. หรือมากกว่า

METAR: ENML 122320Z AUTO 35008KT 9999NDV NCD 13/12 Q1016

เวลา: 02:00 (00:00 UTC)

การพยากรณ์

รายงานได้ทำขึ้นเมื่อ 10 ชั่วโมงและ 0 นาทีที่แล้ว ณ เวลา 14:00 UTC
การพยากรณ์มีผลตั้งแต่วันที่ 12 ณ เวลา 15 UTC จนถึงวันที่ 12 ณ เวลา 23 UTC
ลม 8 นอตจากตะวันตก
ทัศนวิสัย 10 กม. หรือมากกว่า
มีเมฆน้อยที่ความสูง 2500 ฟุต

TAF: ENML 121400Z 1215/1223 27008KT 9999 FEW025

สังเกตการณ์สภาพอากาศและพยากรณ์อากาศของสนามบินมากกว่า 4000 แห่ง (รายงาน METAR และ TAF).

สถานีที่ดูได้จะแสดงไว้ด้วยจุดสีเหลืองและสีแดงบนแผนที่.

เลื่อนเมาส์ไปเหนือจุดเพื่อดูชื่อสถานี.

แล้วคลิกเพื่อดูสังเกตการณ์และการพยากรณ์สภาพอากาศ.

ในการเปลี่ยนแผนที่: คลิกที่ปุ่มสีเขียวที่มีกากบาทสีดำเพื่อซูมเข้า; ที่ปุ่มสีเขียวที่มีขีดเพื่อซูมออก; หรือที่ลูกศรสีเขียวเพื่อไปยังแผนที่ที่อยู่ติดกัน.


METAR-TAF: